< < Back
Terminal Aerodrome Forecast


Current Version              Previous Versions:   1  2  3  4  5  6  7  8  9  

Terminal Aerodrome Forecast

623
FTUS42 KILM 301720
TAFILM
TAF
KILM 301720Z 3018/3118 12008KT P6SM VCSH SCT040
     FM310000 14005KT P6SM SCT250
     FM311000 23004KT P6SM VCSH SCT040 BKN150
      TEMPO 3115/3118 4SM SHRA BKN035=



Latest METAR

673
SAUS70 KWBC 310300 RRE
MTRILM
METAR KILM 310253Z 00000KT 10SM CLR 26/24 A2991 RMK AO2 SLP127 T02610239
51014


USA.gov is the U.S. government's official web portal to all federal, state and local government web resources and services.